Aviation Digital Data Service (ADDS)

Output produced by TAFs form (2220 UTC 02 December 2016)
found at http://aviationweather.gov/adds/tafs/
 
KRIL 022040Z 0221/0318 26007KT P6SM OVC070 
     FM022200 30008KT P6SM VCSH BKN045 
     FM030200 VRB03KT P6SM VCSH BKN040 
     FM030900 00000KT P6SM SCT050